SIA991 WIMM-WSSS
Flight info
| Callsign | SIA991 |
|---|---|
| Flight time | 1h 0m |
| Altitude | 35000 |
| Route | SALAX Y340 BATAR A464 ARAMA DCT TEBUN TEBUN1B |
| Aircraft | B38M/M-SDE1E2E3FGHIJ4J7M3P2RWYZ/EB1D1 |
Departure
| Time | 2026-05-08 14:09 |
|---|---|
| Airport | Kualanamu International Airport (WIMM) |
Arrival
| Time | 2026-05-08 15:09 |
|---|---|
| Airport | Singapore Changi Airport (WSSS) |
| Time | Latitude | Longitude | Altitude | Speed | Heading |
|---|---|---|---|---|---|
| 2026-05-08 13:22 | 3.63807 | 98.87927 | 32 ft | 0 kts | 230° |
| 2026-05-08 13:55 | 3.63817 | 98.87939 | 32 ft | 2 kts | 230° |
| 2026-05-08 13:56 | 3.63827 | 98.87950 | 32 ft | 2 kts | 230° |
| 2026-05-08 13:56 | 3.63837 | 98.87962 | 32 ft | 2 kts | 232° |
| 2026-05-08 13:56 | 3.63843 | 98.87975 | 32 ft | 2 kts | 258° |
| 2026-05-08 13:56 | 3.63844 | 98.87991 | 32 ft | 2 kts | 278° |
| 2026-05-08 13:57 | 3.63840 | 98.88004 | 32 ft | 2 kts | 298° |
| 2026-05-08 13:57 | 3.63834 | 98.88013 | 32 ft | 0 kts | 312° |
| 2026-05-08 13:57 | 3.63829 | 98.88019 | 32 ft | 0 kts | 315° |
| 2026-05-08 14:00 | 3.63829 | 98.88018 | 32 ft | 0 kts | 315° |
| 2026-05-08 14:01 | 3.63850 | 98.87997 | 32 ft | 11 kts | 314° |
| 2026-05-08 14:01 | 3.63897 | 98.87956 | 32 ft | 4 kts | 352° |
| 2026-05-08 14:01 | 3.63933 | 98.87976 | 32 ft | 7 kts | 40° |
| 2026-05-08 14:01 | 3.63975 | 98.88017 | 32 ft | 11 kts | 44° |
| 2026-05-08 14:02 | 3.64046 | 98.88088 | 34 ft | 16 kts | 45° |
| 2026-05-08 14:02 | 3.64107 | 98.88147 | 36 ft | 6 kts | 30° |
| 2026-05-08 14:02 | 3.64138 | 98.88141 | 37 ft | 4 kts | 317° |
| 2026-05-08 14:02 | 3.64198 | 98.88082 | 36 ft | 21 kts | 316° |
| 2026-05-08 14:03 | 3.64294 | 98.87985 | 34 ft | 10 kts | 301° |
| 2026-05-08 14:03 | 3.64263 | 98.87924 | 32 ft | 12 kts | 225° |
| 2026-05-08 14:03 | 3.64185 | 98.87845 | 29 ft | 18 kts | 225° |
| 2026-05-08 14:03 | 3.64089 | 98.87750 | 28 ft | 19 kts | 224° |
| 2026-05-08 14:04 | 3.63998 | 98.87662 | 29 ft | 17 kts | 224° |
| 2026-05-08 14:04 | 3.63909 | 98.87573 | 30 ft | 21 kts | 225° |
| 2026-05-08 14:04 | 3.63780 | 98.87445 | 37 ft | 28 kts | 224° |
| 2026-05-08 14:04 | 3.63646 | 98.87314 | 42 ft | 22 kts | 225° |
| 2026-05-08 14:05 | 3.63609 | 98.87248 | 45 ft | 8 kts | 278° |
| 2026-05-08 14:05 | 3.63639 | 98.87199 | 45 ft | 10 kts | 282° |
| 2026-05-08 14:05 | 3.63603 | 98.87143 | 47 ft | 11 kts | 225° |
| 2026-05-08 14:05 | 3.63512 | 98.87051 | 46 ft | 25 kts | 225° |
| 2026-05-08 14:06 | 3.63376 | 98.86916 | 44 ft | 27 kts | 225° |
| 2026-05-08 14:06 | 3.63242 | 98.86781 | 39 ft | 27 kts | 225° |
| 2026-05-08 14:06 | 3.63104 | 98.86641 | 34 ft | 27 kts | 225° |
| 2026-05-08 14:06 | 3.62969 | 98.86505 | 33 ft | 26 kts | 225° |
| 2026-05-08 14:07 | 3.62854 | 98.86388 | 35 ft | 13 kts | 226° |
| 2026-05-08 14:07 | 3.62840 | 98.86330 | 35 ft | 8 kts | 293° |
| 2026-05-08 14:07 | 3.62887 | 98.86304 | 35 ft | 8 kts | 7° |
| 2026-05-08 14:07 | 3.62948 | 98.86319 | 33 ft | 10 kts | 16° |
| 2026-05-08 14:08 | 3.63027 | 98.86327 | 33 ft | 11 kts | 356° |
| 2026-05-08 14:08 | 3.63131 | 98.86402 | 32 ft | 43 kts | 45° |
| 2026-05-08 14:08 | 3.63519 | 98.86789 | 44 ft | 110 kts | 46° |
| 2026-05-08 14:08 | 3.64206 | 98.87473 | 26 ft | 166 kts | 45° |
| 2026-05-08 14:09 | 3.65033 | 98.88294 | 569 ft | 171 kts | 47° |
| 2026-05-08 14:09 | 3.65765 | 98.89201 | 1305 ft | 168 kts | 66° |
| 2026-05-08 14:09 | 3.65913 | 98.90383 | 1744 ft | 182 kts | 103° |
| 2026-05-08 14:09 | 3.65504 | 98.91616 | 2257 ft | 192 kts | 109° |
| 2026-05-08 14:10 | 3.65070 | 98.92927 | 2706 ft | 207 kts | 107° |
| 2026-05-08 14:10 | 3.64605 | 98.94393 | 3041 ft | 228 kts | 107° |
| 2026-05-08 14:10 | 3.64115 | 98.95941 | 3515 ft | 246 kts | 107° |
| 2026-05-08 14:10 | 3.63590 | 98.97608 | 4021 ft | 258 kts | 106° |
| 2026-05-08 14:11 | 3.63051 | 98.99367 | 4504 ft | 273 kts | 108° |
| 2026-05-08 14:11 | 3.62418 | 99.01199 | 5172 ft | 280 kts | 109° |
| 2026-05-08 14:11 | 3.61779 | 99.03030 | 5938 ft | 283 kts | 109° |
| 2026-05-08 14:11 | 3.61147 | 99.04900 | 6780 ft | 283 kts | 108° |
| 2026-05-08 14:12 | 3.60535 | 99.06757 | 7503 ft | 288 kts | 108° |
| 2026-05-08 14:12 | 3.59923 | 99.08650 | 8314 ft | 285 kts | 107° |
| 2026-05-08 14:12 | 3.59317 | 99.10530 | 8680 ft | 292 kts | 107° |
| 2026-05-08 14:12 | 3.58685 | 99.12469 | 9444 ft | 295 kts | 107° |
| 2026-05-08 14:13 | 3.58053 | 99.14406 | 10289 ft | 296 kts | 107° |
| 2026-05-08 14:13 | 3.57397 | 99.16424 | 10841 ft | 309 kts | 107° |
| 2026-05-08 14:13 | 3.56641 | 99.18475 | 11370 ft | 322 kts | 114° |
| 2026-05-08 14:13 | 3.55530 | 99.20423 | 12166 ft | 325 kts | 122° |
| 2026-05-08 14:14 | 3.54225 | 99.22270 | 12946 ft | 329 kts | 124° |
| 2026-05-08 14:14 | 3.52855 | 99.24119 | 13718 ft | 332 kts | 124° |
| 2026-05-08 14:14 | 3.51486 | 99.25985 | 14519 ft | 333 kts | 123° |
| 2026-05-08 14:14 | 3.50137 | 99.27872 | 15278 ft | 336 kts | 123° |
| 2026-05-08 14:15 | 3.48798 | 99.29776 | 16024 ft | 339 kts | 122° |
| 2026-05-08 14:15 | 3.47454 | 99.31705 | 16788 ft | 340 kts | 122° |
| 2026-05-08 14:15 | 3.46086 | 99.33675 | 17473 ft | 344 kts | 122° |
| 2026-05-08 14:15 | 3.44734 | 99.35624 | 18122 ft | 347 kts | 122° |
| 2026-05-08 14:16 | 3.43356 | 99.37611 | 18840 ft | 348 kts | 122° |
| 2026-05-08 14:16 | 3.41951 | 99.39633 | 19450 ft | 352 kts | 122° |
| 2026-05-08 14:16 | 3.40549 | 99.41649 | 20029 ft | 356 kts | 122° |
| 2026-05-08 14:16 | 3.39124 | 99.43697 | 20588 ft | 361 kts | 122° |
| 2026-05-08 14:17 | 3.37711 | 99.45727 | 21201 ft | 362 kts | 122° |
| 2026-05-08 14:17 | 3.36281 | 99.47812 | 21770 ft | 364 kts | 120° |
| 2026-05-08 14:17 | 3.35033 | 99.50044 | 22307 ft | 366 kts | 114° |
| 2026-05-08 14:17 | 3.33983 | 99.52368 | 22824 ft | 369 kts | 111° |
| 2026-05-08 14:18 | 3.33000 | 99.54720 | 23378 ft | 371 kts | 111° |
| 2026-05-08 14:18 | 3.31997 | 99.57124 | 23857 ft | 375 kts | 111° |
| 2026-05-08 14:18 | 3.30974 | 99.59508 | 24372 ft | 377 kts | 112° |
| 2026-05-08 14:18 | 3.29908 | 99.61927 | 24873 ft | 380 kts | 113° |
| 2026-05-08 14:19 | 3.28833 | 99.64323 | 25352 ft | 383 kts | 113° |
| 2026-05-08 14:19 | 3.27722 | 99.66772 | 25878 ft | 384 kts | 113° |
| 2026-05-08 14:19 | 3.26621 | 99.69180 | 26341 ft | 387 kts | 114° |
| 2026-05-08 14:19 | 3.25496 | 99.71638 | 26729 ft | 392 kts | 114° |
| 2026-05-08 14:20 | 3.24347 | 99.74143 | 27159 ft | 395 kts | 114° |
| 2026-05-08 14:20 | 3.23205 | 99.76634 | 27622 ft | 397 kts | 114° |
| 2026-05-08 14:20 | 3.22045 | 99.79163 | 28047 ft | 400 kts | 114° |
| 2026-05-08 14:20 | 3.20898 | 99.81661 | 28455 ft | 402 kts | 114° |
| 2026-05-08 14:21 | 3.19721 | 99.84225 | 28906 ft | 404 kts | 114° |
| 2026-05-08 14:21 | 3.18552 | 99.86774 | 29324 ft | 406 kts | 114° |
| 2026-05-08 14:21 | 3.17374 | 99.89343 | 29709 ft | 409 kts | 114° |
| 2026-05-08 14:21 | 3.16173 | 99.91961 | 30062 ft | 413 kts | 114° |
| 2026-05-08 14:22 | 3.14972 | 99.94577 | 30479 ft | 415 kts | 114° |
| 2026-05-08 14:22 | 3.13777 | 99.97184 | 30796 ft | 418 kts | 114° |
| 2026-05-08 14:22 | 3.12551 | 99.99855 | 31164 ft | 421 kts | 114° |
| 2026-05-08 14:22 | 3.11342 | 100.02490 | 31602 ft | 421 kts | 114° |
| 2026-05-08 14:23 | 3.10114 | 100.05164 | 31921 ft | 425 kts | 114° |
| 2026-05-08 14:23 | 3.08869 | 100.07873 | 32265 ft | 427 kts | 114° |
| 2026-05-08 14:23 | 3.07631 | 100.10570 | 32579 ft | 430 kts | 114° |
| 2026-05-08 14:23 | 3.06373 | 100.13307 | 32928 ft | 433 kts | 114° |
| 2026-05-08 14:24 | 3.05123 | 100.16031 | 33279 ft | 436 kts | 114° |
| 2026-05-08 14:24 | 3.03846 | 100.18810 | 33663 ft | 438 kts | 114° |
| 2026-05-08 14:24 | 3.02589 | 100.21549 | 33971 ft | 441 kts | 114° |
| 2026-05-08 14:24 | 3.01302 | 100.24352 | 34256 ft | 445 kts | 114° |
| 2026-05-08 14:25 | 3.00010 | 100.27165 | 34816 ft | 442 kts | 114° |
| 2026-05-08 14:25 | 2.97451 | 100.32730 | 34870 ft | 437 kts | 113° |
| 2026-05-08 14:26 | 2.94912 | 100.38251 | 34873 ft | 435 kts | 113° |
| 2026-05-08 14:26 | 2.92391 | 100.43739 | 34874 ft | 437 kts | 113° |
| 2026-05-08 14:27 | 2.89841 | 100.49281 | 34875 ft | 438 kts | 113° |
| 2026-05-08 14:27 | 2.87308 | 100.54787 | 34875 ft | 437 kts | 113° |
| 2026-05-08 14:28 | 2.84759 | 100.60332 | 34879 ft | 437 kts | 113° |
| 2026-05-08 14:28 | 2.82237 | 100.65832 | 34872 ft | 437 kts | 113° |
| 2026-05-08 14:29 | 2.79689 | 100.71378 | 34869 ft | 438 kts | 113° |
| 2026-05-08 14:29 | 2.77134 | 100.76939 | 34868 ft | 437 kts | 113° |
| 2026-05-08 14:30 | 2.74605 | 100.82444 | 34869 ft | 438 kts | 113° |
| 2026-05-08 14:30 | 2.72046 | 100.88016 | 34868 ft | 439 kts | 113° |
| 2026-05-08 14:31 | 2.69509 | 100.93539 | 34869 ft | 439 kts | 113° |
| 2026-05-08 14:31 | 2.66971 | 100.99062 | 34868 ft | 438 kts | 113° |
| 2026-05-08 14:32 | 2.63154 | 101.07365 | 34872 ft | 437 kts | 113° |
| 2026-05-08 14:32 | 2.60607 | 101.12901 | 34873 ft | 440 kts | 113° |
| 2026-05-08 14:33 | 2.58055 | 101.18439 | 34877 ft | 440 kts | 113° |
| 2026-05-08 14:33 | 2.55489 | 101.24013 | 34882 ft | 439 kts | 113° |
| 2026-05-08 14:34 | 2.52924 | 101.29584 | 34882 ft | 440 kts | 113° |
| 2026-05-08 14:34 | 2.50367 | 101.35138 | 34892 ft | 439 kts | 113° |
| 2026-05-08 14:35 | 2.48006 | 101.40266 | 34897 ft | 439 kts | 114° |
| 2026-05-08 14:35 | 2.45454 | 101.45808 | 34900 ft | 439 kts | 113° |
| 2026-05-08 14:36 | 2.42899 | 101.51355 | 34904 ft | 440 kts | 114° |
| 2026-05-08 14:36 | 2.40336 | 101.56920 | 34903 ft | 441 kts | 114° |
| 2026-05-08 14:37 | 2.37771 | 101.62485 | 34903 ft | 441 kts | 114° |
| 2026-05-08 14:37 | 2.35195 | 101.68079 | 34900 ft | 441 kts | 114° |
| 2026-05-08 14:38 | 2.32642 | 101.73619 | 34898 ft | 439 kts | 114° |
| 2026-05-08 14:38 | 2.30077 | 101.79185 | 34898 ft | 441 kts | 114° |
| 2026-05-08 14:39 | 2.27507 | 101.84753 | 34902 ft | 442 kts | 114° |
| 2026-05-08 14:39 | 2.24942 | 101.90316 | 34899 ft | 441 kts | 114° |
| 2026-05-08 14:40 | 2.22371 | 101.95894 | 34902 ft | 442 kts | 114° |
| 2026-05-08 14:40 | 2.19812 | 102.01444 | 34901 ft | 441 kts | 114° |
| 2026-05-08 14:41 | 2.17229 | 102.07033 | 34902 ft | 441 kts | 114° |
| 2026-05-08 14:41 | 2.14557 | 102.12531 | 34894 ft | 443 kts | 116° |
| 2026-05-08 14:42 | 2.11661 | 102.17976 | 34890 ft | 443 kts | 117° |
| 2026-05-08 14:42 | 2.08731 | 102.23413 | 34888 ft | 442 kts | 117° |
| 2026-05-08 14:43 | 2.05827 | 102.28841 | 34703 ft | 439 kts | 117° |
| 2026-05-08 14:43 | 2.04403 | 102.31515 | 34345 ft | 433 kts | 117° |
| 2026-05-08 14:43 | 2.02990 | 102.34179 | 34321 ft | 434 kts | 117° |
| 2026-05-08 14:44 | 2.00127 | 102.39589 | 34313 ft | 446 kts | 117° |
| 2026-05-08 14:44 | 1.98675 | 102.42333 | 34101 ft | 441 kts | 117° |
| 2026-05-08 14:44 | 1.97248 | 102.45029 | 33778 ft | 437 kts | 117° |
| 2026-05-08 14:45 | 1.95818 | 102.47711 | 33121 ft | 436 kts | 117° |
| 2026-05-08 14:45 | 1.94391 | 102.50372 | 32379 ft | 436 kts | 117° |
| 2026-05-08 14:45 | 1.92955 | 102.53046 | 31861 ft | 431 kts | 117° |
| 2026-05-08 14:45 | 1.91561 | 102.55644 | 31358 ft | 427 kts | 117° |
| 2026-05-08 14:46 | 1.90149 | 102.58276 | 30783 ft | 424 kts | 117° |
| 2026-05-08 14:46 | 1.88777 | 102.60838 | 30215 ft | 421 kts | 117° |
| 2026-05-08 14:46 | 1.87402 | 102.63405 | 29642 ft | 419 kts | 117° |
| 2026-05-08 14:46 | 1.86040 | 102.65951 | 29074 ft | 416 kts | 117° |
| 2026-05-08 14:47 | 1.84672 | 102.68507 | 28516 ft | 413 kts | 117° |
| 2026-05-08 14:47 | 1.83327 | 102.71024 | 27972 ft | 410 kts | 117° |
| 2026-05-08 14:47 | 1.81995 | 102.73516 | 27419 ft | 408 kts | 117° |
| 2026-05-08 14:47 | 1.80659 | 102.76016 | 26858 ft | 405 kts | 117° |
| 2026-05-08 14:48 | 1.79342 | 102.78477 | 26303 ft | 403 kts | 117° |
| 2026-05-08 14:48 | 1.78032 | 102.80928 | 25751 ft | 400 kts | 117° |
| 2026-05-08 14:48 | 1.76725 | 102.83371 | 25196 ft | 398 kts | 117° |
| 2026-05-08 14:48 | 1.75415 | 102.85819 | 24633 ft | 396 kts | 117° |
| 2026-05-08 14:49 | 1.74136 | 102.88210 | 24091 ft | 393 kts | 117° |
| 2026-05-08 14:49 | 1.72864 | 102.90589 | 23904 ft | 382 kts | 116° |
| 2026-05-08 14:49 | 1.71611 | 102.92921 | 23900 ft | 380 kts | 116° |
| 2026-05-08 14:49 | 1.70337 | 102.95270 | 23902 ft | 387 kts | 117° |
| 2026-05-08 14:50 | 1.69064 | 102.97652 | 23865 ft | 384 kts | 116° |
| 2026-05-08 14:50 | 1.67834 | 102.99968 | 23503 ft | 379 kts | 116° |
| 2026-05-08 14:50 | 1.66597 | 103.02306 | 22909 ft | 380 kts | 116° |
| 2026-05-08 14:50 | 1.65370 | 103.04622 | 22355 ft | 379 kts | 116° |
| 2026-05-08 14:51 | 1.64135 | 103.06949 | 21823 ft | 377 kts | 116° |
| 2026-05-08 14:51 | 1.62906 | 103.09251 | 21365 ft | 373 kts | 116° |
| 2026-05-08 14:51 | 1.61690 | 103.11527 | 21113 ft | 363 kts | 116° |
| 2026-05-08 14:51 | 1.60534 | 103.13690 | 20907 ft | 354 kts | 116° |
| 2026-05-08 14:52 | 1.59381 | 103.15858 | 20394 ft | 354 kts | 116° |
| 2026-05-08 14:52 | 1.57063 | 103.20222 | 19406 ft | 353 kts | 116° |
| 2026-05-08 14:52 | 1.55916 | 103.22370 | 18951 ft | 351 kts | 116° |
| 2026-05-08 14:53 | 1.54770 | 103.24519 | 18501 ft | 349 kts | 116° |
| 2026-05-08 14:53 | 1.53643 | 103.26632 | 18054 ft | 347 kts | 116° |
| 2026-05-08 14:53 | 1.52512 | 103.28748 | 17608 ft | 345 kts | 116° |
| 2026-05-08 14:53 | 1.51383 | 103.30866 | 17170 ft | 343 kts | 116° |
| 2026-05-08 14:54 | 1.50267 | 103.32963 | 16727 ft | 341 kts | 116° |
| 2026-05-08 14:54 | 1.49157 | 103.35045 | 16288 ft | 339 kts | 116° |
| 2026-05-08 14:54 | 1.48056 | 103.37109 | 15849 ft | 337 kts | 116° |
| 2026-05-08 14:54 | 1.46960 | 103.39194 | 15404 ft | 335 kts | 114° |
| 2026-05-08 14:55 | 1.46161 | 103.41348 | 14993 ft | 329 kts | 99° |
| 2026-05-08 14:55 | 1.46145 | 103.43491 | 15505 ft | 301 kts | 82° |
| 2026-05-08 14:55 | 1.46435 | 103.45605 | 15114 ft | 310 kts | 81° |
| 2026-05-08 14:55 | 1.46728 | 103.47738 | 14665 ft | 310 kts | 82° |
| 2026-05-08 14:56 | 1.47012 | 103.49848 | 14272 ft | 309 kts | 82° |
| 2026-05-08 14:56 | 1.47300 | 103.51973 | 13819 ft | 308 kts | 82° |
| 2026-05-08 14:56 | 1.47591 | 103.54082 | 13297 ft | 306 kts | 82° |
| 2026-05-08 14:56 | 1.47885 | 103.56187 | 12755 ft | 304 kts | 82° |
| 2026-05-08 14:57 | 1.48175 | 103.58258 | 12245 ft | 302 kts | 82° |
| 2026-05-08 14:57 | 1.48462 | 103.60313 | 11731 ft | 299 kts | 82° |
| 2026-05-08 14:57 | 1.48751 | 103.62380 | 11210 ft | 297 kts | 82° |
| 2026-05-08 14:57 | 1.49033 | 103.64404 | 10735 ft | 294 kts | 82° |
| 2026-05-08 14:58 | 1.49313 | 103.66406 | 10306 ft | 288 kts | 82° |
| 2026-05-08 14:58 | 1.49584 | 103.68346 | 10005 ft | 279 kts | 82° |
| 2026-05-08 14:58 | 1.49846 | 103.70219 | 9876 ft | 264 kts | 82° |
| 2026-05-08 14:58 | 1.50072 | 103.71989 | 9709 ft | 252 kts | 83° |
| 2026-05-08 14:59 | 1.50218 | 103.73724 | 9395 ft | 248 kts | 85° |
| 2026-05-08 14:59 | 1.50454 | 103.77080 | 8834 ft | 238 kts | 85° |
| 2026-05-08 14:59 | 1.50582 | 103.78714 | 8561 ft | 233 kts | 85° |
| 2026-05-08 15:00 | 1.50713 | 103.80354 | 8145 ft | 249 kts | 85° |
| 2026-05-08 15:00 | 1.50878 | 103.82097 | 7848 ft | 247 kts | 81° |
| 2026-05-08 15:00 | 1.51347 | 103.83697 | 7615 ft | 240 kts | 63° |
| 2026-05-08 15:00 | 1.52239 | 103.85129 | 7041 ft | 248 kts | 56° |
| 2026-05-08 15:01 | 1.53235 | 103.86569 | 6440 ft | 256 kts | 56° |
| 2026-05-08 15:01 | 1.54250 | 103.88050 | 5854 ft | 261 kts | 56° |
| 2026-05-08 15:01 | 1.55265 | 103.89537 | 5473 ft | 257 kts | 56° |
| 2026-05-08 15:01 | 1.56262 | 103.90997 | 5134 ft | 252 kts | 56° |
| 2026-05-08 15:02 | 1.57251 | 103.92443 | 4792 ft | 248 kts | 57° |
| 2026-05-08 15:02 | 1.58108 | 103.93917 | 4459 ft | 243 kts | 66° |
| 2026-05-08 15:02 | 1.58652 | 103.95486 | 4137 ft | 234 kts | 78° |
| 2026-05-08 15:02 | 1.58845 | 103.97059 | 3887 ft | 223 kts | 90° |
| 2026-05-08 15:03 | 1.58698 | 103.98548 | 3658 ft | 212 kts | 103° |
| 2026-05-08 15:03 | 1.58258 | 103.99927 | 3432 ft | 205 kts | 115° |
| 2026-05-08 15:03 | 1.57546 | 104.01139 | 3202 ft | 200 kts | 129° |
| 2026-05-08 15:03 | 1.56583 | 104.02122 | 2970 ft | 194 kts | 143° |
| 2026-05-08 15:04 | 1.55453 | 104.02805 | 2769 ft | 188 kts | 158° |
| 2026-05-08 15:04 | 1.54220 | 104.03206 | 2728 ft | 184 kts | 164° |
| 2026-05-08 15:04 | 1.52994 | 104.03638 | 2703 ft | 186 kts | 160° |
| 2026-05-08 15:04 | 1.51776 | 104.04106 | 2681 ft | 183 kts | 160° |
| 2026-05-08 15:05 | 1.50602 | 104.04440 | 2655 ft | 171 kts | 172° |
| 2026-05-08 15:05 | 1.49437 | 104.04456 | 2569 ft | 164 kts | 188° |
| 2026-05-08 15:05 | 1.48356 | 104.04155 | 2304 ft | 158 kts | 205° |
| 2026-05-08 15:05 | 1.47469 | 104.03598 | 2148 ft | 146 kts | 216° |
| 2026-05-08 15:06 | 1.46629 | 104.03050 | 1881 ft | 141 kts | 210° |
| 2026-05-08 15:06 | 1.45756 | 104.02550 | 1713 ft | 147 kts | 211° |
| 2026-05-08 15:06 | 1.44870 | 104.01990 | 1573 ft | 151 kts | 210° |
| 2026-05-08 15:06 | 1.43926 | 104.01532 | 1341 ft | 151 kts | 204° |
| 2026-05-08 15:07 | 1.42956 | 104.01133 | 1151 ft | 149 kts | 202° |
| 2026-05-08 15:07 | 1.41981 | 104.00738 | 985 ft | 150 kts | 202° |
| 2026-05-08 15:07 | 1.41013 | 104.00335 | 733 ft | 149 kts | 203° |
| 2026-05-08 15:07 | 1.40070 | 103.99938 | 558 ft | 148 kts | 202° |
| 2026-05-08 15:08 | 1.39116 | 103.99533 | 377 ft | 147 kts | 203° |
| 2026-05-08 15:08 | 1.38492 | 103.99271 | 253 ft | 147 kts | 204° |
| 2026-05-08 15:08 | 1.37235 | 103.98735 | 29 ft | 143 kts | 204° |
| 2026-05-08 15:08 | 1.36495 | 103.98422 | 28 ft | 85 kts | 202° |
| 2026-05-08 15:09 | 1.36107 | 103.98258 | 28 ft | 50 kts | 203° |
| 2026-05-08 15:09 | 1.35811 | 103.98134 | 28 ft | 28 kts | 200° |
| 2026-05-08 15:09 | 1.35641 | 103.98113 | 28 ft | 23 kts | 178° |
| 2026-05-08 15:09 | 1.35536 | 103.98131 | 28 ft | 6 kts | 138° |
| 2026-05-08 15:10 | 1.35522 | 103.98168 | 28 ft | 5 kts | 87° |
| 2026-05-08 15:10 | 1.35536 | 103.98202 | 28 ft | 6 kts | 55° |
| 2026-05-08 15:10 | 1.35581 | 103.98229 | 28 ft | 9 kts | 22° |
| 2026-05-08 15:10 | 1.35684 | 103.98274 | 28 ft | 24 kts | 24° |
| 2026-05-08 15:11 | 1.35865 | 103.98350 | 28 ft | 28 kts | 22° |
| 2026-05-08 15:11 | 1.36048 | 103.98427 | 28 ft | 28 kts | 23° |
| 2026-05-08 15:11 | 1.36229 | 103.98503 | 28 ft | 27 kts | 23° |
| 2026-05-08 15:11 | 1.36405 | 103.98578 | 28 ft | 26 kts | 22° |
| 2026-05-08 15:12 | 1.36576 | 103.98650 | 28 ft | 27 kts | 23° |
| 2026-05-08 15:12 | 1.36757 | 103.98727 | 28 ft | 23 kts | 22° |
| 2026-05-08 15:12 | 1.36877 | 103.98777 | 28 ft | 5 kts | 25° |
| 2026-05-08 15:12 | 1.36913 | 103.98794 | 28 ft | 7 kts | 24° |
| 2026-05-08 15:13 | 1.36976 | 103.98819 | 28 ft | 10 kts | 26° |
| 2026-05-08 15:13 | 1.37005 | 103.98878 | 28 ft | 9 kts | 110° |
| 2026-05-08 15:13 | 1.36975 | 103.98945 | 28 ft | 13 kts | 111° |
| 2026-05-08 15:13 | 1.36931 | 103.99050 | 28 ft | 17 kts | 113° |
| 2026-05-08 15:14 | 1.36881 | 103.99167 | 28 ft | 18 kts | 113° |
| 2026-05-08 15:14 | 1.36828 | 103.99290 | 28 ft | 21 kts | 113° |
| 2026-05-08 15:14 | 1.36766 | 103.99435 | 28 ft | 22 kts | 112° |
| 2026-05-08 15:14 | 1.36709 | 103.99570 | 28 ft | 18 kts | 113° |
| 2026-05-08 15:15 | 1.36661 | 103.99678 | 28 ft | 8 kts | 117° |
| 2026-05-08 15:15 | 1.36619 | 103.99685 | 28 ft | 11 kts | 198° |
| 2026-05-08 15:15 | 1.36518 | 103.99644 | 28 ft | 20 kts | 203° |
| 2026-05-08 15:15 | 1.36392 | 103.99587 | 28 ft | 16 kts | 217° |
| 2026-05-08 15:16 | 1.36324 | 103.99502 | 28 ft | 15 kts | 233° |
| 2026-05-08 15:16 | 1.36242 | 103.99423 | 28 ft | 17 kts | 205° |
| 2026-05-08 15:16 | 1.36124 | 103.99373 | 28 ft | 17 kts | 204° |
| 2026-05-08 15:16 | 1.36051 | 103.99342 | 28 ft | 1 kts | 203° |
| 2026-05-08 15:17 | 1.36038 | 103.99331 | 28 ft | 4 kts | 234° |
| 2026-05-08 15:17 | 1.36043 | 103.99288 | 28 ft | 7 kts | 296° |
| 2026-05-08 15:17 | 1.36061 | 103.99250 | 28 ft | 2 kts | 293° |
| 2026-05-08 15:17 | 1.36061 | 103.99249 | 28 ft | 0 kts | 293° |